Key West International Airport
KEYW : now visible

Airfield :











YOU CAN JOIN US ON...

 
LOGIN :

Register | Disclaimer

   EN    FR    IT 

 









Legend :    VFR   Marginal VFR   IFR   Intensive IFR   Very Intensive IFR
Visi :
Ceiling :
>= 8 km
>= 3000ft
5 to 8 km
1000 to 3000 ft
1500m to 5 km
500 to 1000 ft
800 to 1500m
200 to 500 ft
< 800m
< 200 ft
Symbols :   Thunderstorms  Fog  Heavy snow  Heavy precipitations  Wind > 20 kt






- Airport Elevation : 3 ft
- IATA code : EYW


KEYW - Key West International

CURRENT METAR :
  • 241053Z AUTO 08008KT 10SM FEW022 SCT028 27/23 A2987 RMK AO2 SLP115 T02670233

EXPIRED METARs :
  • 241041Z AUTO 07008KT 10SM FEW021 BKN028 BKN046 27/23 A2987 RMK AO2 T02670233
  • 241024Z AUTO 08007KT 10SM FEW028 BKN044 27/23 A2987 RMK AO2 T02670233
  • 240953Z AUTO 07006KT 10SM BKN025 27/23 A2987 RMK AO2 SLP113 T02670233
  • 240943Z AUTO 07005KT 10SM BKN025 27/23 A2987 RMK AO2 T02670233
  • 240929Z AUTO 07006KT 10SM SCT026 SCT034 27/23 A2986 RMK AO2 T02670233
  • 240922Z AUTO 07007KT 10SM BKN026 BKN034 27/23 A2986 RMK AO2 T02670233
  • 240853Z AUTO 08010KT 10SM CLR 27/23 A2986 RMK AO2 SLP112 60000 T02670233 56010

TAF KEYW
Valid from the 24 at 12:00 until the 25 at 12:00 UTC


241133Z 2412/2512 07010G17KT P6SM VCSH SCT025 SCT050 SCT120
TEMPO 2413/2417 4SM SHRA BKN025
FM250400 13009KT 5SM SHRA SCT018 BKN040
KZMA FIR / North America



MET'MAP, your aeronautical weather chart ! - Copyright ORBIFLY December 2007 - Disclaimer

ORBIFLY MET'MAP TEAM :

Programming & Development : Alexandra Zaïnal
Concept & original design : Baudouin d'Aumeries
Assistance for programming : Marc-Olivier Méhu
Technical & hardware support : Manuel Goepfert

Contact : metmap@orbifly.com




SOURCES & CREDITS :

   NOAA       Earth
Advisory